createdAt,value
2022-11-14T00:00:04.630Z,1009.82
2022-11-14T00:01:04.604Z,1009.79
2022-11-14T00:02:04.573Z,1009.73
2022-11-14T00:03:04.571Z,1009.75
2022-11-14T00:04:04.520Z,1009.77
2022-11-14T00:05:04.491Z,1009.75
2022-11-14T00:06:04.470Z,1009.73
2022-11-14T00:07:04.461Z,1009.72
2022-11-14T00:08:04.409Z,1009.69
2022-11-14T00:09:04.384Z,1009.75
2022-11-14T00:10:04.372Z,1009.71
2022-11-14T00:11:04.328Z,1009.64
2022-11-14T00:12:04.310Z,1009.69
2022-11-14T00:13:04.296Z,1009.68
2022-11-14T00:14:04.247Z,1009.68
2022-11-14T00:15:04.330Z,1009.60
2022-11-14T00:16:04.193Z,1009.66
2022-11-14T00:17:04.168Z,1009.62
2022-11-14T00:18:04.139Z,1009.60
2022-11-14T00:19:04.109Z,1009.57
2022-11-14T00:20:04.085Z,1009.59
2022-11-14T00:21:04.076Z,1009.56
2022-11-14T00:22:04.029Z,1009.51
2022-11-14T00:23:03.999Z,1009.50
2022-11-14T00:24:03.975Z,1009.49
2022-11-14T00:25:03.947Z,1009.45
2022-11-14T00:26:03.919Z,1009.42
2022-11-14T00:27:03.889Z,1009.41
2022-11-14T00:28:03.868Z,1009.40
2022-11-14T00:29:03.838Z,1009.41
2022-11-14T00:30:03.808Z,1009.36
2022-11-14T00:31:03.799Z,1009.34
2022-11-14T00:32:03.755Z,1009.37
2022-11-14T00:33:03.727Z,1009.36
2022-11-14T00:34:03.701Z,1009.34
2022-11-14T00:35:03.677Z,1009.39
2022-11-14T00:36:03.646Z,1009.39
2022-11-14T00:37:03.615Z,1009.38
2022-11-14T00:38:03.590Z,1009.36
2022-11-14T00:39:03.562Z,1009.36
2022-11-14T00:40:03.538Z,1009.35
2022-11-14T00:41:03.507Z,1009.28
2022-11-14T00:42:03.480Z,1009.30
2022-11-14T00:43:03.454Z,1009.31
2022-11-14T00:44:03.426Z,1009.29
2022-11-14T00:45:03.397Z,1009.26
2022-11-14T00:46:03.371Z,1009.30
2022-11-14T00:47:03.451Z,1009.29
2022-11-14T00:48:03.315Z,1009.27
2022-11-14T00:49:03.286Z,1009.25
2022-11-14T00:50:03.261Z,1009.27
2022-11-14T00:51:03.231Z,1009.28
2022-11-14T00:52:03.206Z,1009.23
2022-11-14T00:53:03.179Z,1009.23
2022-11-14T00:54:03.159Z,1009.20
2022-11-14T00:55:03.123Z,1009.25
2022-11-14T00:56:03.096Z,1009.28
2022-11-14T00:57:03.069Z,1009.26
2022-11-14T00:58:03.042Z,1009.25
2022-11-14T00:59:03.011Z,1009.26
2022-11-14T01:00:02.985Z,1009.27
2022-11-14T01:01:03.033Z,1009.27
2022-11-14T01:02:02.937Z,1009.23
2022-11-14T01:03:03.016Z,1009.21
2022-11-14T01:04:02.884Z,1009.18
2022-11-14T01:05:02.872Z,1009.13
2022-11-14T01:06:02.824Z,1009.15
2022-11-14T01:07:02.789Z,1009.15
2022-11-14T01:08:02.766Z,1009.14
2022-11-14T01:09:02.775Z,1009.09
2022-11-14T01:10:02.712Z,1009.04
2022-11-14T01:11:02.682Z,1009.06
2022-11-14T01:12:02.654Z,1009.04
2022-11-14T01:13:02.626Z,1009.02
2022-11-14T01:14:02.598Z,1009.04
2022-11-14T01:15:02.571Z,1009.03
2022-11-14T01:16:02.549Z,1009.02
2022-11-14T01:17:02.516Z,1008.99
2022-11-14T01:18:02.490Z,1008.98
2022-11-14T01:19:02.570Z,1008.98
2022-11-14T01:20:02.441Z,1008.93
2022-11-14T01:21:02.411Z,1008.87
2022-11-14T01:22:06.149Z,1008.88
2022-11-14T01:23:02.353Z,1008.86
2022-11-14T01:24:02.322Z,1008.81
2022-11-14T01:25:02.299Z,1008.82
2022-11-14T01:26:02.268Z,1008.82
2022-11-14T01:27:02.241Z,1008.85
2022-11-14T01:28:02.214Z,1008.83
2022-11-14T01:29:02.186Z,1008.82
2022-11-14T01:30:02.154Z,1008.77
2022-11-14T01:31:02.128Z,1008.77
2022-11-14T01:32:02.098Z,1008.72
2022-11-14T01:33:02.074Z,1008.74
2022-11-14T01:34:02.051Z,1008.73
2022-11-14T01:35:02.140Z,1008.70
2022-11-14T01:36:01.987Z,1008.71
2022-11-14T01:37:01.961Z,1008.68
2022-11-14T01:38:01.936Z,1008.65
2022-11-14T01:39:01.905Z,1008.65
2022-11-14T01:40:01.878Z,1008.65
2022-11-14T01:41:01.854Z,1008.63
2022-11-14T01:42:01.831Z,1008.64
2022-11-14T01:43:01.795Z,1008.63
2022-11-14T01:44:01.767Z,1008.64
2022-11-14T01:45:01.743Z,1008.65
2022-11-14T01:46:01.710Z,1008.59
2022-11-14T01:47:01.686Z,1008.65
2022-11-14T01:48:01.657Z,1008.69
2022-11-14T01:49:01.631Z,1008.65
2022-11-14T01:50:01.598Z,1008.66
2022-11-14T01:51:01.707Z,1008.65
2022-11-14T01:52:01.541Z,1008.62
2022-11-14T01:53:01.518Z,1008.62
2022-11-14T01:54:01.486Z,1008.59
2022-11-14T01:55:01.463Z,1008.60
2022-11-14T01:56:01.438Z,1008.60
2022-11-14T01:57:01.406Z,1008.61
2022-11-14T01:58:01.376Z,1008.55
2022-11-14T01:59:01.352Z,1008.56
2022-11-14T02:00:01.323Z,1008.55
2022-11-14T02:01:01.341Z,1008.56
2022-11-14T02:02:01.269Z,1008.53
2022-11-14T02:03:01.239Z,1008.48
2022-11-14T02:04:02.621Z,1008.48
2022-11-14T02:05:01.185Z,1008.50
2022-11-14T02:06:01.154Z,1008.45
2022-11-14T02:07:01.309Z,1008.49
2022-11-14T02:08:01.099Z,1008.45
2022-11-14T02:09:01.078Z,1008.42
2022-11-14T02:10:01.041Z,1008.41
2022-11-14T02:11:01.015Z,1008.48
2022-11-14T02:12:00.986Z,1008.45
2022-11-14T02:13:00.960Z,1008.48
2022-11-14T02:14:00.929Z,1008.46
2022-11-14T02:15:00.905Z,1008.42
2022-11-14T02:16:00.876Z,1008.39
2022-11-14T02:17:28.102Z,1008.37
2022-11-14T02:18:00.816Z,1008.30
2022-11-14T02:19:00.795Z,1008.33
2022-11-14T02:20:04.820Z,1008.30
2022-11-14T02:21:00.736Z,1008.27
2022-11-14T02:22:00.704Z,1008.31
2022-11-14T02:23:00.795Z,1008.28
2022-11-14T02:24:00.651Z,1008.26
2022-11-14T02:25:00.625Z,1008.27
2022-11-14T02:26:00.593Z,1008.27
2022-11-14T02:27:00.573Z,1008.24
2022-11-14T02:28:00.539Z,1008.30
2022-11-14T02:29:00.510Z,1008.32
2022-11-14T02:30:00.479Z,1008.26
2022-11-14T02:31:00.454Z,1008.27
2022-11-14T02:32:00.425Z,1008.28
2022-11-14T02:33:15.771Z,1008.26
2022-11-14T02:34:00.368Z,1008.27
2022-11-14T02:35:00.344Z,1008.26
2022-11-14T02:36:00.310Z,1008.25
2022-11-14T02:37:00.292Z,1008.26
2022-11-14T02:38:00.255Z,1008.22
2022-11-14T02:39:00.361Z,1008.14
2022-11-14T02:40:00.199Z,1008.12
2022-11-14T02:41:00.174Z,1008.12
2022-11-14T02:42:00.148Z,1008.10
2022-11-14T02:43:00.118Z,1008.06
2022-11-14T02:44:00.091Z,1008.02
2022-11-14T02:45:00.061Z,1008.04
2022-11-14T02:46:05.265Z,1008.05
2022-11-14T02:47:00.006Z,1008.01
2022-11-14T02:47:59.975Z,1008.00
2022-11-14T02:48:59.947Z,1007.97
2022-11-14T02:49:59.920Z,1007.94
2022-11-14T02:50:59.891Z,1007.94
2022-11-14T02:51:59.865Z,1007.94
2022-11-14T02:52:59.840Z,1007.93
2022-11-14T02:53:59.806Z,1007.92
2022-11-14T02:54:59.894Z,1007.87
2022-11-14T02:55:59.751Z,1007.86
2022-11-14T02:56:59.724Z,1007.85
2022-11-14T02:57:59.695Z,1007.83
2022-11-14T02:58:59.669Z,1007.84
2022-11-14T02:59:59.641Z,1007.82
2022-11-14T03:01:19.844Z,1007.85
2022-11-14T03:01:59.643Z,1007.79
2022-11-14T03:02:59.556Z,1007.81
2022-11-14T03:03:59.524Z,1007.78
2022-11-14T03:04:59.495Z,1007.81
2022-11-14T03:05:59.466Z,1007.79
2022-11-14T03:06:59.449Z,1007.82
2022-11-14T03:07:59.412Z,1007.77
2022-11-14T03:08:59.385Z,1007.82
2022-11-14T03:09:59.355Z,1007.82
2022-11-14T03:10:59.437Z,1007.81
2022-11-14T03:11:59.300Z,1007.82
2022-11-14T03:12:59.272Z,1007.78
2022-11-14T03:13:59.243Z,1007.78
2022-11-14T03:14:59.215Z,1007.78
2022-11-14T03:15:59.188Z,1007.75
2022-11-14T03:16:59.158Z,1007.77
2022-11-14T03:17:59.128Z,1007.74
2022-11-14T03:18:59.107Z,1007.72
2022-11-14T03:19:59.076Z,1007.76
2022-11-14T03:20:59.046Z,1007.73
2022-11-14T03:21:59.136Z,1007.67
2022-11-14T03:22:58.993Z,1007.69
2022-11-14T03:23:58.962Z,1007.67
2022-11-14T03:24:58.934Z,1007.67
2022-11-14T03:25:58.908Z,1007.66
2022-11-14T03:26:58.991Z,1007.64
2022-11-14T03:27:58.848Z,1007.67
2022-11-14T03:28:58.824Z,1007.62
2022-11-14T03:29:58.795Z,1007.63
2022-11-14T03:30:58.766Z,1007.59
2022-11-14T03:31:58.742Z,1007.55
2022-11-14T03:32:58.710Z,1007.59
2022-11-14T03:33:58.678Z,1007.52
2022-11-14T03:34:58.652Z,1007.55
2022-11-14T03:35:58.623Z,1007.49
2022-11-14T03:36:58.597Z,1007.49
2022-11-14T03:37:58.568Z,1007.46
2022-11-14T03:38:58.541Z,1007.45
2022-11-14T03:39:58.514Z,1007.46
2022-11-14T03:40:58.485Z,1007.50
2022-11-14T03:41:58.459Z,1007.51
2022-11-14T03:42:58.538Z,1007.53
2022-11-14T03:43:58.399Z,1007.52
2022-11-14T03:44:58.371Z,1007.50
2022-11-14T03:45:58.342Z,1007.49
2022-11-14T03:46:58.315Z,1007.48
2022-11-14T03:47:58.284Z,1007.46
2022-11-14T03:48:58.262Z,1007.48
2022-11-14T03:49:58.233Z,1007.46
2022-11-14T03:50:58.203Z,1007.48
2022-11-14T03:51:58.172Z,1007.43
2022-11-14T03:52:58.148Z,1007.45
2022-11-14T03:53:58.115Z,1007.49
2022-11-14T03:54:58.093Z,1007.48
2022-11-14T03:55:58.062Z,1007.50
2022-11-14T03:56:58.033Z,1007.50
2022-11-14T03:57:58.006Z,1007.47
2022-11-14T03:58:58.092Z,1007.47
2022-11-14T03:59:57.946Z,1007.44
2022-11-14T04:00:58.011Z,1007.46
2022-11-14T04:01:57.888Z,1007.48
2022-11-14T04:02:57.865Z,1007.44
2022-11-14T04:03:57.832Z,1007.45
2022-11-14T04:04:57.826Z,1007.44
2022-11-14T04:05:57.778Z,1007.41
2022-11-14T04:06:57.781Z,1007.37
2022-11-14T04:07:57.722Z,1007.44
2022-11-14T04:08:57.713Z,1007.43
2022-11-14T04:09:57.662Z,1007.43
2022-11-14T04:10:57.639Z,1007.43
2022-11-14T04:11:57.609Z,1007.40
2022-11-14T04:12:57.583Z,1007.43
2022-11-14T04:13:57.549Z,1007.42
2022-11-14T04:14:57.638Z,1007.39
2022-11-14T04:15:57.495Z,1007.47
2022-11-14T04:16:57.467Z,1007.45
2022-11-14T04:17:57.446Z,1007.42
2022-11-14T04:18:57.410Z,1007.42
2022-11-14T04:19:57.380Z,1007.43
2022-11-14T04:20:57.356Z,1007.39
2022-11-14T04:21:57.328Z,1007.39
2022-11-14T04:22:57.295Z,1007.40
2022-11-14T04:23:57.280Z,1007.39
2022-11-14T04:24:57.241Z,1007.36
2022-11-14T04:25:57.210Z,1007.38
2022-11-14T04:26:57.183Z,1007.36
2022-11-14T04:27:57.154Z,1007.35
2022-11-14T04:28:57.129Z,1007.34
2022-11-14T04:29:57.097Z,1007.35
2022-11-14T04:30:57.186Z,1007.38
2022-11-14T04:31:57.040Z,1007.36
2022-11-14T04:32:57.014Z,1007.36
2022-11-14T04:33:56.982Z,1007.36
2022-11-14T04:34:56.958Z,1007.34
2022-11-14T04:35:56.927Z,1007.30
2022-11-14T04:36:56.900Z,1007.37
2022-11-14T04:37:56.871Z,1007.37
2022-11-14T04:38:56.843Z,1007.36
2022-11-14T04:39:56.812Z,1007.32
2022-11-14T04:40:56.787Z,1007.31
2022-11-14T04:41:56.759Z,1007.33
2022-11-14T04:42:56.729Z,1007.33
2022-11-14T04:43:56.698Z,1007.28
2022-11-14T04:44:56.777Z,1007.23
2022-11-14T04:45:56.647Z,1007.23
2022-11-14T04:46:56.728Z,1007.17
2022-11-14T04:47:56.583Z,1007.18
2022-11-14T04:48:56.560Z,1007.13
2022-11-14T04:49:56.530Z,1007.14
2022-11-14T04:50:56.500Z,1007.10
2022-11-14T04:51:56.472Z,1007.07
2022-11-14T04:52:56.446Z,1007.08
2022-11-14T04:53:56.413Z,1007.06
2022-11-14T04:54:56.386Z,1007.04
2022-11-14T04:55:56.361Z,1007.01
2022-11-14T04:56:56.329Z,1006.99
2022-11-14T04:57:56.300Z,1006.97
2022-11-14T04:58:56.272Z,1006.96
2022-11-14T04:59:56.243Z,1006.95
2022-11-14T05:00:56.266Z,1006.96
2022-11-14T05:01:56.222Z,1006.90
2022-11-14T05:02:56.177Z,1006.92
2022-11-14T05:03:56.127Z,1006.94
2022-11-14T05:04:56.102Z,1006.93
2022-11-14T05:05:56.070Z,1006.94
2022-11-14T05:06:56.070Z,1006.93
2022-11-14T05:07:56.359Z,1006.97
2022-11-14T05:08:55.988Z,1006.93
2022-11-14T05:09:55.962Z,1006.94
2022-11-14T05:10:55.928Z,1006.93
2022-11-14T05:11:55.898Z,1006.91
2022-11-14T05:12:55.873Z,1006.95
2022-11-14T05:13:55.843Z,1006.87
2022-11-14T05:14:55.817Z,1006.85
2022-11-14T05:15:55.784Z,1006.84
2022-11-14T05:16:55.757Z,1006.84
2022-11-14T05:17:55.727Z,1006.83
2022-11-14T05:18:55.722Z,1006.84
2022-11-14T05:19:55.672Z,1006.85
2022-11-14T05:20:55.645Z,1006.88
2022-11-14T05:21:55.614Z,1006.84
2022-11-14T05:22:55.587Z,1006.81
2022-11-14T05:23:55.557Z,1006.79
2022-11-14T05:24:55.531Z,1006.79
2022-11-14T05:25:58.677Z,1006.75
2022-11-14T05:26:55.474Z,1006.74
2022-11-14T05:27:55.444Z,1006.73
2022-11-14T05:28:55.415Z,1006.73
2022-11-14T05:29:55.389Z,1006.72
2022-11-14T05:30:55.356Z,1006.75
2022-11-14T05:31:55.330Z,1006.75
2022-11-14T05:32:55.302Z,1006.75
2022-11-14T05:33:55.272Z,1006.71
2022-11-14T05:34:55.263Z,1006.73
2022-11-14T05:35:55.217Z,1006.69
2022-11-14T05:36:55.186Z,1006.71
2022-11-14T05:37:59.879Z,1006.72
2022-11-14T05:38:55.128Z,1006.72
2022-11-14T05:39:55.109Z,1006.70
2022-11-14T05:40:55.073Z,1006.72
2022-11-14T05:41:55.045Z,1006.74
2022-11-14T05:42:55.016Z,1006.71
2022-11-14T05:43:54.985Z,1006.75
2022-11-14T05:44:54.958Z,1006.73
2022-11-14T05:45:54.929Z,1006.72
2022-11-14T05:46:54.899Z,1006.73
2022-11-14T05:47:54.876Z,1006.71
2022-11-14T05:48:54.842Z,1006.71
2022-11-14T05:49:54.817Z,1006.68
2022-11-14T05:50:54.810Z,1006.69
2022-11-14T05:51:54.760Z,1006.65
2022-11-14T05:52:54.728Z,1006.62
2022-11-14T05:53:54.710Z,1006.60
2022-11-14T05:54:54.689Z,1006.56
2022-11-14T05:55:54.655Z,1006.61
2022-11-14T05:56:54.615Z,1006.56
2022-11-14T05:57:54.593Z,1006.57
2022-11-14T05:58:54.558Z,1006.58
2022-11-14T05:59:54.534Z,1006.53
2022-11-14T06:00:54.705Z,1006.53
2022-11-14T06:01:54.540Z,1006.57
2022-11-14T06:02:54.444Z,1006.59
2022-11-14T06:03:54.419Z,1006.62
2022-11-14T06:04:54.389Z,1006.61
2022-11-14T06:05:54.359Z,1006.60
2022-11-14T06:06:54.414Z,1006.62
2022-11-14T06:07:54.306Z,1006.63
2022-11-14T06:08:54.272Z,1006.63
2022-11-14T06:09:54.242Z,1006.68
2022-11-14T06:10:54.219Z,1006.66
2022-11-14T06:11:54.186Z,1006.65
2022-11-14T06:12:54.157Z,1006.70
2022-11-14T06:13:54.128Z,1006.72
2022-11-14T06:14:54.098Z,1006.75
2022-11-14T06:15:54.074Z,1006.69
2022-11-14T06:16:54.042Z,1006.69
2022-11-14T06:17:54.016Z,1006.72
2022-11-14T06:18:53.992Z,1006.70
2022-11-14T06:19:53.957Z,1006.72
2022-11-14T06:20:53.928Z,1006.68
2022-11-14T06:21:53.902Z,1006.69
2022-11-14T06:22:53.890Z,1006.68
2022-11-14T06:23:53.844Z,1006.65
2022-11-14T06:24:53.812Z,1006.63
2022-11-14T06:25:53.785Z,1006.67
2022-11-14T06:26:53.757Z,1006.69
2022-11-14T06:27:53.727Z,1006.70
2022-11-14T06:28:53.704Z,1006.69
2022-11-14T06:29:53.672Z,1006.71
2022-11-14T06:30:53.643Z,1006.67
2022-11-14T06:31:53.618Z,1006.73
2022-11-14T06:32:53.582Z,1006.74
2022-11-14T06:33:53.560Z,1006.72
2022-11-14T06:34:53.524Z,1006.77
2022-11-14T06:35:53.498Z,1006.77
2022-11-14T06:36:53.469Z,1006.78
2022-11-14T06:37:53.440Z,1006.78
2022-11-14T06:38:53.437Z,1006.79
2022-11-14T06:39:53.385Z,1006.72
2022-11-14T06:40:53.370Z,1006.72
2022-11-14T06:41:53.367Z,1006.81
2022-11-14T06:42:53.321Z,1006.76
2022-11-14T06:43:53.270Z,1006.76
2022-11-14T06:44:53.244Z,1006.77
2022-11-14T06:45:53.210Z,1006.82
2022-11-14T06:46:53.182Z,1006.80
2022-11-14T06:47:53.174Z,1006.78
2022-11-14T06:48:53.140Z,1006.81
2022-11-14T06:49:53.098Z,1006.81
2022-11-14T06:50:53.072Z,1006.81
2022-11-14T06:51:53.039Z,1006.79
2022-11-14T06:52:53.009Z,1006.76
2022-11-14T06:53:52.984Z,1006.77
2022-11-14T06:54:52.970Z,1006.79
2022-11-14T06:55:52.925Z,1006.80
2022-11-14T06:56:52.894Z,1006.82
2022-11-14T06:57:52.874Z,1006.80
2022-11-14T06:58:52.836Z,1006.81
2022-11-14T06:59:52.812Z,1006.77
2022-11-14T07:00:52.780Z,1006.76
2022-11-14T07:01:52.752Z,1006.74
2022-11-14T07:02:52.762Z,1006.78
2022-11-14T07:03:52.692Z,1006.77
2022-11-14T07:04:52.666Z,1006.72
2022-11-14T07:05:52.693Z,1006.71
2022-11-14T07:06:52.714Z,1006.70
2022-11-14T07:07:52.581Z,1006.66
2022-11-14T07:08:52.556Z,1006.68
2022-11-14T07:09:52.540Z,1006.73
2022-11-14T07:10:52.540Z,1006.70
2022-11-14T07:11:52.463Z,1006.65
2022-11-14T07:12:52.438Z,1006.58
2022-11-14T07:13:52.406Z,1006.60
2022-11-14T07:14:52.378Z,1006.57
2022-11-14T07:15:52.348Z,1006.53
2022-11-14T07:16:52.322Z,1006.47
2022-11-14T07:17:52.292Z,1006.44
2022-11-14T07:18:52.261Z,1006.45
2022-11-14T07:19:52.235Z,1006.48
2022-11-14T07:20:52.205Z,1006.48
2022-11-14T07:21:52.202Z,1006.51
2022-11-14T07:22:52.145Z,1006.55
2022-11-14T07:23:52.123Z,1006.60
2022-11-14T07:24:52.087Z,1006.57
2022-11-14T07:25:52.058Z,1006.56
2022-11-14T07:26:52.048Z,1006.60
2022-11-14T07:27:52.003Z,1006.57
2022-11-14T07:28:55.489Z,1006.56
2022-11-14T07:29:51.946Z,1006.54
2022-11-14T07:30:51.913Z,1006.55
2022-11-14T07:31:51.890Z,1006.55
2022-11-14T07:32:51.856Z,1006.50
2022-11-14T07:33:51.834Z,1006.50
2022-11-14T07:34:51.797Z,1006.45
2022-11-14T07:35:51.773Z,1006.48
2022-11-14T07:36:51.744Z,1006.46
2022-11-14T07:37:51.715Z,1006.46
2022-11-14T07:38:51.681Z,1006.37
2022-11-14T07:39:51.657Z,1006.39
2022-11-14T07:40:55.439Z,1006.33
2022-11-14T07:41:51.597Z,1006.29
2022-11-14T07:42:51.586Z,1006.31
2022-11-14T07:43:51.543Z,1006.27
2022-11-14T07:44:51.511Z,1006.29
2022-11-14T07:45:51.532Z,1006.26
2022-11-14T07:46:51.452Z,1006.20
2022-11-14T07:47:51.427Z,1006.21
2022-11-14T07:48:51.395Z,1006.26
2022-11-14T07:49:51.369Z,1006.29
2022-11-14T07:50:51.338Z,1006.40
2022-11-14T07:51:51.310Z,1006.38
2022-11-14T07:52:51.281Z,1006.39
2022-11-14T07:53:51.375Z,1006.39
2022-11-14T07:54:51.222Z,1006.44
2022-11-14T07:55:51.200Z,1006.47
2022-11-14T07:56:51.166Z,1006.49
2022-11-14T07:57:51.138Z,1006.46
2022-11-14T07:58:51.124Z,1006.45
2022-11-14T07:59:51.081Z,1006.44
2022-11-14T08:00:51.067Z,1006.48
2022-11-14T08:01:51.029Z,1006.41
2022-11-14T08:02:50.991Z,1006.42
2022-11-14T08:03:50.967Z,1006.40
2022-11-14T08:04:50.937Z,1006.36
2022-11-14T08:05:50.909Z,1006.34
2022-11-14T08:06:50.911Z,1006.37
2022-11-14T08:07:50.855Z,1006.41
2022-11-14T08:08:50.823Z,1006.37
2022-11-14T08:09:50.793Z,1006.36
2022-11-14T08:10:50.770Z,1006.36
2022-11-14T08:11:50.772Z,1006.39
2022-11-14T08:13:10.725Z,1006.42
2022-11-14T08:13:50.682Z,1006.50
2022-11-14T08:14:50.668Z,1006.50
2022-11-14T08:15:50.626Z,1006.46
2022-11-14T08:16:50.594Z,1006.41
2022-11-14T08:17:50.564Z,1006.43
2022-11-14T08:18:50.536Z,1006.48
2022-11-14T08:19:50.511Z,1006.51
2022-11-14T08:20:50.481Z,1006.54
2022-11-14T08:21:50.452Z,1006.51
2022-11-14T08:22:50.423Z,1006.45
2022-11-14T08:23:50.395Z,1006.47
2022-11-14T08:24:50.369Z,1006.43
2022-11-14T08:25:50.352Z,1006.41
2022-11-14T08:26:50.311Z,1006.41
2022-11-14T08:27:50.285Z,1006.43
2022-11-14T08:28:50.252Z,1006.48
2022-11-14T08:29:50.230Z,1006.50
2022-11-14T08:30:50.215Z,1006.47
2022-11-14T08:31:50.169Z,1006.46
2022-11-14T08:32:50.140Z,1006.43
2022-11-14T08:33:50.114Z,1006.46
2022-11-14T08:34:50.085Z,1006.48
2022-11-14T08:35:50.055Z,1006.48
2022-11-14T08:36:50.025Z,1006.46
2022-11-14T08:37:50.012Z,1006.45
2022-11-14T08:38:51.663Z,1006.48
2022-11-14T08:39:49.941Z,1006.40
2022-11-14T08:40:49.914Z,1006.39
2022-11-14T08:41:49.886Z,1006.38
2022-11-14T08:42:49.859Z,1006.38
2022-11-14T08:43:49.829Z,1006.40
2022-11-14T08:44:52.166Z,1006.35
2022-11-14T08:45:49.874Z,1006.31
2022-11-14T08:46:49.766Z,1006.27
2022-11-14T08:47:49.719Z,1006.29
2022-11-14T08:48:49.686Z,1006.34
2022-11-14T08:49:49.658Z,1006.31
2022-11-14T08:50:49.630Z,1006.38
2022-11-14T08:51:49.606Z,1006.30
2022-11-14T08:52:49.585Z,1006.26
2022-11-14T08:53:49.545Z,1006.22
2022-11-14T08:54:49.514Z,1006.16
2022-11-14T08:55:49.492Z,1006.15
2022-11-14T08:56:49.463Z,1006.14
2022-11-14T08:57:50.128Z,1006.17
2022-11-14T08:58:49.404Z,1006.18
2022-11-14T08:59:49.377Z,1006.21
2022-11-14T09:00:49.351Z,1006.21
2022-11-14T09:01:49.344Z,1006.25
2022-11-14T09:02:49.410Z,1006.25
2022-11-14T09:03:49.524Z,1006.30
2022-11-14T09:04:49.340Z,1006.28
2022-11-14T09:05:49.269Z,1006.33
2022-11-14T09:06:49.334Z,1006.32
2022-11-14T09:07:49.214Z,1006.33
2022-11-14T09:08:49.198Z,1006.23
2022-11-14T09:09:49.151Z,1006.25
2022-11-14T09:10:49.143Z,1006.27
2022-11-14T09:11:49.248Z,1006.25
2022-11-14T09:12:49.046Z,1006.19
2022-11-14T09:13:49.031Z,1006.22
2022-11-14T09:14:49.014Z,1006.28
2022-11-14T09:15:48.983Z,1006.25
2022-11-14T09:16:48.942Z,1006.28
2022-11-14T09:17:48.928Z,1006.24
2022-11-14T09:18:49.022Z,1006.20
2022-11-14T09:19:48.866Z,1006.23
2022-11-14T09:20:48.838Z,1006.22
2022-11-14T09:21:48.814Z,1006.27
2022-11-14T09:22:48.789Z,1006.26
2022-11-14T09:23:48.758Z,1006.30
2022-11-14T09:24:48.759Z,1006.31
2022-11-14T09:25:48.697Z,1006.29
2022-11-14T09:26:53.409Z,1006.36
2022-11-14T09:27:48.646Z,1006.29
2022-11-14T09:28:48.567Z,1006.24
2022-11-14T09:29:48.589Z,1006.28
2022-11-14T09:30:48.567Z,1006.28
2022-11-14T09:31:48.551Z,1006.24
2022-11-14T09:32:48.501Z,1006.26
2022-11-14T09:33:48.535Z,1006.27
2022-11-14T09:34:48.549Z,1006.28
2022-11-14T09:35:48.497Z,1006.28
2022-11-14T09:36:48.398Z,1006.31
2022-11-14T09:37:48.323Z,1006.33
2022-11-14T09:38:48.297Z,1006.29
2022-11-14T09:39:48.270Z,1006.33
2022-11-14T09:40:48.244Z,1006.31
2022-11-14T09:41:48.219Z,1006.29
2022-11-14T09:42:48.206Z,1006.30
2022-11-14T09:43:48.166Z,1006.28
2022-11-14T09:44:48.140Z,1006.31
2022-11-14T09:45:48.112Z,1006.31
2022-11-14T09:46:48.087Z,1006.27
2022-11-14T09:47:48.063Z,1006.23
2022-11-14T09:48:48.036Z,1006.24
2022-11-14T09:49:48.007Z,1006.22
2022-11-14T09:50:48.001Z,1006.25
2022-11-14T09:51:47.959Z,1006.25
2022-11-14T09:52:47.932Z,1006.22
2022-11-14T09:53:47.909Z,1006.22
2022-11-14T09:54:47.882Z,1006.27
2022-11-14T09:55:47.855Z,1006.24
2022-11-14T09:56:47.831Z,1006.21
2022-11-14T09:57:47.803Z,1006.21
2022-11-14T09:58:47.780Z,1006.21
2022-11-14T09:59:47.755Z,1006.19
2022-11-14T10:00:47.730Z,1006.18
2022-11-14T10:01:47.724Z,1006.21
2022-11-14T10:02:47.686Z,1006.12
2022-11-14T10:03:47.652Z,1006.15
2022-11-14T10:04:47.632Z,1006.12
2022-11-14T10:05:47.602Z,1006.14
2022-11-14T10:06:47.650Z,1006.17
2022-11-14T10:07:47.553Z,1006.15
2022-11-14T10:08:47.529Z,1006.15
2022-11-14T10:09:47.504Z,1006.11
2022-11-14T10:10:47.482Z,1006.11
2022-11-14T10:11:47.452Z,1006.09
2022-11-14T10:12:47.435Z,1006.11
2022-11-14T10:13:47.401Z,1006.12
2022-11-14T10:14:47.379Z,1006.09
2022-11-14T10:15:47.376Z,1006.07
2022-11-14T10:16:47.329Z,1006.05
2022-11-14T10:17:47.302Z,1006.05
2022-11-14T10:18:47.280Z,1006.06
2022-11-14T10:19:47.258Z,1006.00
2022-11-14T10:20:47.231Z,1005.95
2022-11-14T10:21:47.208Z,1005.95
2022-11-14T10:22:47.201Z,1005.92
2022-11-14T10:23:47.158Z,1005.86
2022-11-14T10:24:47.137Z,1005.85
2022-11-14T10:25:47.111Z,1005.82
2022-11-14T10:26:47.090Z,1005.80
2022-11-14T10:27:51.244Z,1005.82
2022-11-14T10:28:47.039Z,1005.81
2022-11-14T10:29:47.012Z,1005.81
2022-11-14T10:30:47.069Z,1005.77
2022-11-14T10:31:46.964Z,1005.79
2022-11-14T10:32:46.942Z,1005.79
2022-11-14T10:33:46.919Z,1005.79
2022-11-14T10:34:46.895Z,1005.79
2022-11-14T10:35:46.868Z,1005.81
2022-11-14T10:36:46.849Z,1005.83
2022-11-14T10:37:46.823Z,1005.84
2022-11-14T10:38:46.821Z,1005.85
2022-11-14T10:39:46.775Z,1005.87
2022-11-14T10:40:46.755Z,1005.95
2022-11-14T10:42:07.501Z,1005.97
2022-11-14T10:42:46.719Z,1005.99
2022-11-14T10:43:46.684Z,1005.97
2022-11-14T10:44:46.659Z,1005.97
2022-11-14T10:45:46.634Z,1006.02
2022-11-14T10:46:46.757Z,1006.02
2022-11-14T10:47:46.589Z,1006.04
2022-11-14T10:48:46.567Z,1006.12
2022-11-14T10:49:46.551Z,1006.14
2022-11-14T10:50:46.524Z,1006.10
2022-11-14T10:51:46.515Z,1006.16
2022-11-14T10:52:46.650Z,1006.19
2022-11-14T10:53:46.453Z,1006.18
2022-11-14T10:54:46.447Z,1006.17
2022-11-14T10:56:03.270Z,1006.11
2022-11-14T10:56:46.383Z,1006.14
2022-11-14T10:57:46.364Z,1006.05
2022-11-14T10:58:49.370Z,1006.07
2022-11-14T10:59:46.316Z,1006.08
2022-11-14T11:00:46.415Z,1006.11
2022-11-14T11:01:46.267Z,1006.09
2022-11-14T11:02:46.272Z,1006.07
2022-11-14T11:03:46.257Z,1006.07
2022-11-14T11:04:46.245Z,1006.11
2022-11-14T11:05:46.176Z,1006.07
2022-11-14T11:06:46.234Z,1006.01
2022-11-14T11:07:46.128Z,1005.93
2022-11-14T11:08:46.411Z,1006.04
2022-11-14T11:09:46.397Z,1006.02
2022-11-14T11:10:46.115Z,1006.00
2022-11-14T11:11:46.071Z,1005.98
2022-11-14T11:12:46.276Z,1005.99
2022-11-14T11:13:45.988Z,1006.00
2022-11-14T11:14:45.966Z,1005.95
2022-11-14T11:15:45.939Z,1005.97
2022-11-14T11:16:45.917Z,1005.91
2022-11-14T11:17:45.889Z,1005.88
2022-11-14T11:18:50.530Z,1005.90
2022-11-14T11:19:46.011Z,1005.90
2022-11-14T11:20:45.821Z,1005.83
2022-11-14T11:21:45.898Z,1005.86
2022-11-14T11:22:45.774Z,1005.83
2022-11-14T11:23:46.744Z,1005.80
2022-11-14T11:24:45.724Z,1005.80
2022-11-14T11:25:45.696Z,1005.79
2022-11-14T11:26:45.689Z,1005.75
2022-11-14T11:27:45.647Z,1005.73
2022-11-14T11:28:45.623Z,1005.70
2022-11-14T11:29:45.599Z,1005.67
2022-11-14T11:30:49.419Z,1005.59
2022-11-14T11:31:45.548Z,1005.58
2022-11-14T11:32:45.524Z,1005.57
2022-11-14T11:33:45.500Z,1005.52
2022-11-14T11:34:45.478Z,1005.52
2022-11-14T11:35:45.450Z,1005.51
2022-11-14T11:36:45.426Z,1005.51
2022-11-14T11:37:45.402Z,1005.49
2022-11-14T11:38:45.374Z,1005.51
2022-11-14T11:39:45.349Z,1005.53
2022-11-14T11:40:45.325Z,1005.50
2022-11-14T11:42:14.854Z,1005.51
2022-11-14T11:43:45.250Z,1005.50
2022-11-14T11:44:45.226Z,1005.40
2022-11-14T11:45:45.199Z,1005.33
2022-11-14T11:46:45.173Z,1005.35
2022-11-14T11:47:45.151Z,1005.28
2022-11-14T11:48:45.124Z,1005.29
2022-11-14T11:49:50.125Z,1005.31
2022-11-14T11:50:45.074Z,1005.31
2022-11-14T11:51:45.047Z,1005.29
2022-11-14T11:52:45.027Z,1005.29
2022-11-14T11:53:45.005Z,1005.24
2022-11-14T11:54:44.977Z,1005.26
2022-11-14T11:55:44.948Z,1005.26
2022-11-14T11:56:44.922Z,1005.22
2022-11-14T11:57:44.897Z,1005.17
2022-11-14T11:58:44.891Z,1005.15
2022-11-14T11:59:44.846Z,1005.17
2022-11-14T12:00:44.871Z,1005.15
2022-11-14T12:01:44.827Z,1005.16
2022-11-14T12:02:49.542Z,1005.16
2022-11-14T12:03:44.862Z,1005.11
2022-11-14T12:04:44.771Z,1005.07
2022-11-14T12:05:44.693Z,1005.07